sensor_id;sensor_type;location;lat;lon;timestamp;P1;durP1;ratioP1;P2;durP2;ratioP2
35056;SDS011;21241;51.828;19.574;2024-02-14T00:00:22;34.70;;;29.90;;
35056;SDS011;21241;51.828;19.574;2024-02-14T00:03:12;36.20;;;26.90;;
35056;SDS011;21241;51.828;19.574;2024-02-14T00:05:41;40.40;;;32.70;;
35056;SDS011;21241;51.828;19.574;2024-02-14T00:08:09;37.10;;;28.90;;
35056;SDS011;21241;51.828;19.574;2024-02-14T00:10:37;28.50;;;25.40;;
35056;SDS011;21241;51.828;19.574;2024-02-14T00:13:05;30.80;;;27.60;;
35056;SDS011;21241;51.828;19.574;2024-02-14T00:15:32;44.20;;;32.20;;
35056;SDS011;21241;51.828;19.574;2024-02-14T00:18:00;37.90;;;31.30;;
35056;SDS011;21241;51.828;19.574;2024-02-14T00:20:28;39.30;;;30.60;;
35056;SDS011;21241;51.828;19.574;2024-02-14T00:22:56;43.80;;;30.40;;
35056;SDS011;21241;51.828;19.574;2024-02-14T00:25:24;43.10;;;29.50;;
35056;SDS011;21241;51.828;19.574;2024-02-14T00:27:52;31.10;;;23.90;;
35056;SDS011;21241;51.828;19.574;2024-02-14T00:30:21;50.30;;;31.30;;
35056;SDS011;21241;51.828;19.574;2024-02-14T00:32:51;42.00;;;28.80;;
35056;SDS011;21241;51.828;19.574;2024-02-14T00:35:19;28.10;;;23.30;;
35056;SDS011;21241;51.828;19.574;2024-02-14T00:37:47;23.70;;;21.30;;
35056;SDS011;21241;51.828;19.574;2024-02-14T00:40:15;41.40;;;36.10;;
35056;SDS011;21241;51.828;19.574;2024-02-14T00:42:42;38.60;;;34.20;;
35056;SDS011;21241;51.828;19.574;2024-02-14T00:45:10;34.00;;;28.30;;
35056;SDS011;21241;51.828;19.574;2024-02-14T00:47:39;32.70;;;26.10;;
35056;SDS011;21241;51.828;19.574;2024-02-14T00:50:08;30.20;;;26.20;;
35056;SDS011;21241;51.828;19.574;2024-02-14T00:52:36;30.60;;;24.80;;
35056;SDS011;21241;51.828;19.574;2024-02-14T00:55:04;25.00;;;22.30;;
35056;SDS011;21241;51.828;19.574;2024-02-14T00:57:32;27.00;;;24.00;;
35056;SDS011;21241;51.828;19.574;2024-02-14T01:00:00;42.90;;;28.90;;
35056;SDS011;21241;51.828;19.574;2024-02-14T01:02:29;35.70;;;26.40;;
35056;SDS011;21241;51.828;19.574;2024-02-14T01:04:57;38.40;;;26.90;;
35056;SDS011;21241;51.828;19.574;2024-02-14T01:07:25;42.80;;;29.60;;
35056;SDS011;21241;51.828;19.574;2024-02-14T01:09:53;42.40;;;29.70;;
35056;SDS011;21241;51.828;19.574;2024-02-14T01:12:21;33.90;;;26.50;;
35056;SDS011;21241;51.828;19.574;2024-02-14T01:14:49;34.80;;;26.10;;
35056;SDS011;21241;51.828;19.574;2024-02-14T01:17:16;31.90;;;26.50;;
35056;SDS011;21241;51.828;19.574;2024-02-14T01:19:45;38.00;;;27.50;;
35056;SDS011;21241;51.828;19.574;2024-02-14T01:22:13;39.00;;;28.40;;
35056;SDS011;21241;51.828;19.574;2024-02-14T01:24:44;29.60;;;24.20;;
35056;SDS011;21241;51.828;19.574;2024-02-14T01:27:12;33.50;;;25.40;;
35056;SDS011;21241;51.828;19.574;2024-02-14T01:29:40;51.30;;;42.10;;
35056;SDS011;21241;51.828;19.574;2024-02-14T01:32:08;45.10;;;38.40;;
35056;SDS011;21241;51.828;19.574;2024-02-14T01:34:37;33.70;;;30.10;;
35056;SDS011;21241;51.828;19.574;2024-02-14T01:37:04;41.40;;;33.00;;
35056;SDS011;21241;51.828;19.574;2024-02-14T01:39:33;36.30;;;30.20;;
35056;SDS011;21241;51.828;19.574;2024-02-14T01:42:01;30.10;;;26.00;;
35056;SDS011;21241;51.828;19.574;2024-02-14T01:44:34;30.80;;;24.50;;
35056;SDS011;21241;51.828;19.574;2024-02-14T01:47:03;39.30;;;29.70;;
35056;SDS011;21241;51.828;19.574;2024-02-14T01:49:34;40.50;;;28.40;;
35056;SDS011;21241;51.828;19.574;2024-02-14T01:52:02;34.20;;;25.60;;
35056;SDS011;21241;51.828;19.574;2024-02-14T01:54:31;36.00;;;25.50;;
35056;SDS011;21241;51.828;19.574;2024-02-14T01:56:59;33.40;;;25.40;;
35056;SDS011;21241;51.828;19.574;2024-02-14T01:59:28;40.00;;;29.90;;
35056;SDS011;21241;51.828;19.574;2024-02-14T02:01:56;37.80;;;28.40;;
35056;SDS011;21241;51.828;19.574;2024-02-14T02:04:24;27.30;;;21.20;;
35056;SDS011;21241;51.828;19.574;2024-02-14T02:06:53;22.50;;;19.10;;
35056;SDS011;21241;51.828;19.574;2024-02-14T02:09:24;22.90;;;19.80;;
35056;SDS011;21241;51.828;19.574;2024-02-14T02:11:52;20.80;;;17.70;;
35056;SDS011;21241;51.828;19.574;2024-02-14T02:14:23;29.20;;;20.80;;
35056;SDS011;21241;51.828;19.574;2024-02-14T02:16:51;30.10;;;23.60;;
35056;SDS011;21241;51.828;19.574;2024-02-14T02:19:21;21.40;;;17.00;;
35056;SDS011;21241;51.828;19.574;2024-02-14T02:21:49;32.90;;;27.80;;
35056;SDS011;21241;51.828;19.574;2024-02-14T02:24:17;22.30;;;19.90;;
35056;SDS011;21241;51.828;19.574;2024-02-14T02:26:45;31.10;;;27.40;;
35056;SDS011;21241;51.828;19.574;2024-02-14T02:29:13;28.80;;;22.60;;
35056;SDS011;21241;51.828;19.574;2024-02-14T02:31:44;28.00;;;23.90;;
35056;SDS011;21241;51.828;19.574;2024-02-14T02:34:11;27.40;;;20.90;;
35056;SDS011;21241;51.828;19.574;2024-02-14T02:36:40;32.30;;;28.70;;
35056;SDS011;21241;51.828;19.574;2024-02-14T02:39:08;31.70;;;22.40;;
35056;SDS011;21241;51.828;19.574;2024-02-14T02:41:37;24.10;;;19.70;;
35056;SDS011;21241;51.828;19.574;2024-02-14T02:44:04;22.20;;;17.40;;
35056;SDS011;21241;51.828;19.574;2024-02-14T02:46:34;20.50;;;16.70;;
35056;SDS011;21241;51.828;19.574;2024-02-14T02:49:02;19.10;;;16.20;;
35056;SDS011;21241;51.828;19.574;2024-02-14T02:51:30;20.60;;;17.70;;
35056;SDS011;21241;51.828;19.574;2024-02-14T02:53:58;21.40;;;18.20;;
35056;SDS011;21241;51.828;19.574;2024-02-14T02:56:26;20.70;;;17.50;;
35056;SDS011;21241;51.828;19.574;2024-02-14T02:58:55;18.70;;;16.40;;
35056;SDS011;21241;51.828;19.574;2024-02-14T03:01:23;19.00;;;17.00;;
35056;SDS011;21241;51.828;19.574;2024-02-14T03:03:52;17.80;;;16.00;;
35056;SDS011;21241;51.828;19.574;2024-02-14T03:06:21;18.80;;;16.30;;
35056;SDS011;21241;51.828;19.574;2024-02-14T03:08:49;19.10;;;17.10;;
35056;SDS011;21241;51.828;19.574;2024-02-14T03:11:16;29.40;;;23.90;;
35056;SDS011;21241;51.828;19.574;2024-02-14T03:13:44;32.40;;;25.40;;
35056;SDS011;21241;51.828;19.574;2024-02-14T03:16:12;30.00;;;23.80;;
35056;SDS011;21241;51.828;19.574;2024-02-14T03:18:42;28.20;;;24.20;;
35056;SDS011;21241;51.828;19.574;2024-02-14T03:21:10;27.40;;;24.50;;
35056;SDS011;21241;51.828;19.574;2024-02-14T03:23:39;28.90;;;25.80;;
35056;SDS011;21241;51.828;19.574;2024-02-14T03:26:07;29.50;;;26.30;;
35056;SDS011;21241;51.828;19.574;2024-02-14T03:28:36;29.20;;;26.20;;
35056;SDS011;21241;51.828;19.574;2024-02-14T03:31:04;28.70;;;25.50;;
35056;SDS011;21241;51.828;19.574;2024-02-14T03:33:32;26.70;;;23.10;;
35056;SDS011;21241;51.828;19.574;2024-02-14T03:36:00;24.30;;;21.20;;
35056;SDS011;21241;51.828;19.574;2024-02-14T03:38:28;21.50;;;19.20;;
35056;SDS011;21241;51.828;19.574;2024-02-14T03:40:57;23.50;;;19.70;;
35056;SDS011;21241;51.828;19.574;2024-02-14T03:43:24;20.80;;;18.40;;
35056;SDS011;21241;51.828;19.574;2024-02-14T03:45:52;21.50;;;19.10;;
35056;SDS011;21241;51.828;19.574;2024-02-14T03:48:20;20.80;;;18.60;;
35056;SDS011;21241;51.828;19.574;2024-02-14T03:50:48;21.40;;;18.40;;
35056;SDS011;21241;51.828;19.574;2024-02-14T03:53:16;25.00;;;20.60;;
35056;SDS011;21241;51.828;19.574;2024-02-14T03:55:44;33.70;;;26.30;;
35056;SDS011;21241;51.828;19.574;2024-02-14T03:58:12;30.00;;;25.60;;
35056;SDS011;21241;51.828;19.574;2024-02-14T04:00:42;25.90;;;23.00;;
35056;SDS011;21241;51.828;19.574;2024-02-14T04:03:12;27.20;;;21.20;;
35056;SDS011;21241;51.828;19.574;2024-02-14T04:05:41;23.50;;;18.90;;
35056;SDS011;21241;51.828;19.574;2024-02-14T04:08:09;21.40;;;19.10;;
35056;SDS011;21241;51.828;19.574;2024-02-14T04:10:38;23.80;;;20.90;;
35056;SDS011;21241;51.828;19.574;2024-02-14T04:13:07;24.50;;;21.90;;
35056;SDS011;21241;51.828;19.574;2024-02-14T04:15:35;22.80;;;20.40;;
35056;SDS011;21241;51.828;19.574;2024-02-14T04:18:02;25.40;;;21.80;;
35056;SDS011;21241;51.828;19.574;2024-02-14T04:20:34;23.30;;;20.90;;
35056;SDS011;21241;51.828;19.574;2024-02-14T04:23:03;21.30;;;19.10;;
35056;SDS011;21241;51.828;19.574;2024-02-14T04:25:34;21.70;;;19.50;;
35056;SDS011;21241;51.828;19.574;2024-02-14T04:28:03;22.40;;;19.90;;
35056;SDS011;21241;51.828;19.574;2024-02-14T04:30:31;22.50;;;20.20;;
35056;SDS011;21241;51.828;19.574;2024-02-14T04:32:59;22.50;;;19.60;;
35056;SDS011;21241;51.828;19.574;2024-02-14T04:35:27;22.90;;;20.50;;
35056;SDS011;21241;51.828;19.574;2024-02-14T04:37:55;24.20;;;21.70;;
35056;SDS011;21241;51.828;19.574;2024-02-14T04:40:23;22.50;;;20.00;;
35056;SDS011;21241;51.828;19.574;2024-02-14T04:42:50;22.50;;;20.20;;
35056;SDS011;21241;51.828;19.574;2024-02-14T04:45:18;22.30;;;20.00;;
35056;SDS011;21241;51.828;19.574;2024-02-14T04:47:46;23.10;;;21.00;;
35056;SDS011;21241;51.828;19.574;2024-02-14T04:50:14;22.90;;;20.40;;
35056;SDS011;21241;51.828;19.574;2024-02-14T04:52:42;24.30;;;21.90;;
35056;SDS011;21241;51.828;19.574;2024-02-14T04:55:10;23.70;;;21.10;;
35056;SDS011;21241;51.828;19.574;2024-02-14T04:57:38;23.90;;;21.50;;
35056;SDS011;21241;51.828;19.574;2024-02-14T05:00:06;23.90;;;21.50;;
35056;SDS011;21241;51.828;19.574;2024-02-14T05:02:36;24.60;;;22.20;;
35056;SDS011;21241;51.828;19.574;2024-02-14T05:05:05;24.30;;;22.00;;
35056;SDS011;21241;51.828;19.574;2024-02-14T05:07:33;23.20;;;20.90;;
35056;SDS011;21241;51.828;19.574;2024-02-14T05:10:02;23.20;;;20.90;;
35056;SDS011;21241;51.828;19.574;2024-02-14T05:12:30;24.40;;;21.80;;
35056;SDS011;21241;51.828;19.574;2024-02-14T05:14:58;28.10;;;22.60;;
35056;SDS011;21241;51.828;19.574;2024-02-14T05:17:26;25.80;;;23.10;;
35056;SDS011;21241;51.828;19.574;2024-02-14T05:19:54;25.80;;;23.00;;
35056;SDS011;21241;51.828;19.574;2024-02-14T05:22:22;26.90;;;24.20;;
35056;SDS011;21241;51.828;19.574;2024-02-14T05:24:50;28.50;;;23.70;;
35056;SDS011;21241;51.828;19.574;2024-02-14T05:27:18;23.80;;;21.50;;
35056;SDS011;21241;51.828;19.574;2024-02-14T05:29:46;24.90;;;22.30;;
35056;SDS011;21241;51.828;19.574;2024-02-14T05:32:14;25.10;;;22.60;;
35056;SDS011;21241;51.828;19.574;2024-02-14T05:34:42;26.20;;;23.70;;
35056;SDS011;21241;51.828;19.574;2024-02-14T05:37:10;28.00;;;25.20;;
35056;SDS011;21241;51.828;19.574;2024-02-14T05:39:38;28.50;;;25.40;;
35056;SDS011;21241;51.828;19.574;2024-02-14T05:42:06;26.10;;;23.40;;
35056;SDS011;21241;51.828;19.574;2024-02-14T05:44:34;26.90;;;24.20;;
35056;SDS011;21241;51.828;19.574;2024-02-14T05:47:02;25.70;;;23.10;;
35056;SDS011;21241;51.828;19.574;2024-02-14T05:49:30;28.10;;;25.30;;
35056;SDS011;21241;51.828;19.574;2024-02-14T05:51:58;28.00;;;25.30;;
35056;SDS011;21241;51.828;19.574;2024-02-14T05:54:27;27.20;;;24.20;;
35056;SDS011;21241;51.828;19.574;2024-02-14T05:56:55;29.20;;;26.50;;
35056;SDS011;21241;51.828;19.574;2024-02-14T05:59:24;28.90;;;25.80;;
35056;SDS011;21241;51.828;19.574;2024-02-14T06:01:52;28.30;;;25.40;;
35056;SDS011;21241;51.828;19.574;2024-02-14T06:04:20;27.70;;;24.70;;
35056;SDS011;21241;51.828;19.574;2024-02-14T06:06:48;26.90;;;24.00;;
35056;SDS011;21241;51.828;19.574;2024-02-14T06:09:16;28.40;;;25.60;;
35056;SDS011;21241;51.828;19.574;2024-02-14T06:11:44;29.30;;;26.40;;
35056;SDS011;21241;51.828;19.574;2024-02-14T06:14:12;30.20;;;27.20;;
35056;SDS011;21241;51.828;19.574;2024-02-14T06:16:42;29.70;;;26.60;;
35056;SDS011;21241;51.828;19.574;2024-02-14T06:19:09;29.00;;;26.00;;
35056;SDS011;21241;51.828;19.574;2024-02-14T06:21:38;26.80;;;24.30;;
35056;SDS011;21241;51.828;19.574;2024-02-14T06:24:06;30.20;;;26.50;;
35056;SDS011;21241;51.828;19.574;2024-02-14T06:26:34;30.90;;;27.70;;
35056;SDS011;21241;51.828;19.574;2024-02-14T06:29:02;30.50;;;26.30;;
35056;SDS011;21241;51.828;19.574;2024-02-14T06:31:34;30.60;;;27.60;;
35056;SDS011;21241;51.828;19.574;2024-02-14T06:34:02;28.90;;;25.90;;
35056;SDS011;21241;51.828;19.574;2024-02-14T06:36:30;29.50;;;26.40;;
35056;SDS011;21241;51.828;19.574;2024-02-14T06:38:58;29.60;;;26.50;;
35056;SDS011;21241;51.828;19.574;2024-02-14T06:41:27;27.50;;;24.80;;
35056;SDS011;21241;51.828;19.574;2024-02-14T06:43:55;29.40;;;26.40;;
35056;SDS011;21241;51.828;19.574;2024-02-14T06:46:23;28.20;;;25.30;;
35056;SDS011;21241;51.828;19.574;2024-02-14T06:48:54;28.50;;;25.50;;
35056;SDS011;21241;51.828;19.574;2024-02-14T06:51:23;26.90;;;24.00;;
35056;SDS011;21241;51.828;19.574;2024-02-14T06:53:51;28.10;;;25.20;;
35056;SDS011;21241;51.828;19.574;2024-02-14T06:56:19;27.00;;;24.30;;
35056;SDS011;21241;51.828;19.574;2024-02-14T06:58:47;25.10;;;22.40;;
35056;SDS011;21241;51.828;19.574;2024-02-14T07:01:20;24.70;;;22.20;;
35056;SDS011;21241;51.828;19.574;2024-02-14T07:03:51;25.30;;;22.60;;
35056;SDS011;21241;51.828;19.574;2024-02-14T07:06:19;23.40;;;21.10;;
35056;SDS011;21241;51.828;19.574;2024-02-14T07:08:48;23.70;;;21.30;;
35056;SDS011;21241;51.828;19.574;2024-02-14T07:11:16;23.30;;;20.90;;
35056;SDS011;21241;51.828;19.574;2024-02-14T07:13:44;21.60;;;19.50;;
35056;SDS011;21241;51.828;19.574;2024-02-14T07:16:12;22.40;;;20.10;;
35056;SDS011;21241;51.828;19.574;2024-02-14T07:18:39;20.60;;;18.50;;
35056;SDS011;21241;51.828;19.574;2024-02-14T07:21:08;21.10;;;19.00;;
35056;SDS011;21241;51.828;19.574;2024-02-14T07:23:36;21.10;;;19.00;;
35056;SDS011;21241;51.828;19.574;2024-02-14T07:26:04;19.60;;;17.50;;
35056;SDS011;21241;51.828;19.574;2024-02-14T07:28:31;20.70;;;18.30;;
35056;SDS011;21241;51.828;19.574;2024-02-14T07:30:59;19.60;;;17.60;;
35056;SDS011;21241;51.828;19.574;2024-02-14T07:33:27;20.10;;;17.80;;
35056;SDS011;21241;51.828;19.574;2024-02-14T07:35:55;17.80;;;16.00;;
35056;SDS011;21241;51.828;19.574;2024-02-14T07:38:23;18.20;;;16.40;;
35056;SDS011;21241;51.828;19.574;2024-02-14T07:40:51;18.30;;;16.40;;
35056;SDS011;21241;51.828;19.574;2024-02-14T07:43:20;18.40;;;16.50;;
35056;SDS011;21241;51.828;19.574;2024-02-14T07:45:47;17.40;;;15.60;;
35056;SDS011;21241;51.828;19.574;2024-02-14T07:48:16;18.30;;;16.50;;
35056;SDS011;21241;51.828;19.574;2024-02-14T07:50:44;18.30;;;16.40;;
35056;SDS011;21241;51.828;19.574;2024-02-14T07:53:11;18.00;;;16.10;;
35056;SDS011;21241;51.828;19.574;2024-02-14T07:55:39;18.00;;;15.30;;
35056;SDS011;21241;51.828;19.574;2024-02-14T07:58:07;17.60;;;15.40;;
35056;SDS011;21241;51.828;19.574;2024-02-14T08:00:35;15.50;;;14.00;;
35056;SDS011;21241;51.828;19.574;2024-02-14T08:03:03;17.10;;;15.30;;
35056;SDS011;21241;51.828;19.574;2024-02-14T08:05:33;16.00;;;14.10;;
35056;SDS011;21241;51.828;19.574;2024-02-14T08:08:01;15.80;;;14.30;;
35056;SDS011;21241;51.828;19.574;2024-02-14T08:10:29;16.50;;;14.80;;
35056;SDS011;21241;51.828;19.574;2024-02-14T08:12:59;16.20;;;14.50;;
35056;SDS011;21241;51.828;19.574;2024-02-14T08:15:26;15.00;;;13.50;;
35056;SDS011;21241;51.828;19.574;2024-02-14T08:17:54;16.00;;;13.20;;
35056;SDS011;21241;51.828;19.574;2024-02-14T08:20:29;14.00;;;12.70;;
35056;SDS011;21241;51.828;19.574;2024-02-14T08:22:57;15.80;;;14.20;;
35056;SDS011;21241;51.828;19.574;2024-02-14T08:25:24;15.40;;;14.00;;
35056;SDS011;21241;51.828;19.574;2024-02-14T08:27:54;16.10;;;14.40;;
35056;SDS011;21241;51.828;19.574;2024-02-14T08:30:22;17.70;;;13.70;;
35056;SDS011;21241;51.828;19.574;2024-02-14T08:32:49;16.50;;;14.30;;
35056;SDS011;21241;51.828;19.574;2024-02-14T08:35:18;18.70;;;14.10;;
35056;SDS011;21241;51.828;19.574;2024-02-14T08:37:46;17.00;;;15.40;;
35056;SDS011;21241;51.828;19.574;2024-02-14T08:40:14;18.00;;;16.10;;
35056;SDS011;21241;51.828;19.574;2024-02-14T08:42:42;16.70;;;15.10;;
35056;SDS011;21241;51.828;19.574;2024-02-14T08:45:09;18.20;;;15.80;;
35056;SDS011;21241;51.828;19.574;2024-02-14T08:47:38;18.70;;;16.80;;
35056;SDS011;21241;51.828;19.574;2024-02-14T08:50:07;17.90;;;16.20;;
35056;SDS011;21241;51.828;19.574;2024-02-14T08:52:36;17.80;;;15.70;;
35056;SDS011;21241;51.828;19.574;2024-02-14T08:55:08;17.70;;;15.90;;
35056;SDS011;21241;51.828;19.574;2024-02-14T08:57:42;16.50;;;14.90;;
35056;SDS011;21241;51.828;19.574;2024-02-14T09:00:10;16.80;;;15.20;;
35056;SDS011;21241;51.828;19.574;2024-02-14T09:02:42;19.40;;;16.60;;
35056;SDS011;21241;51.828;19.574;2024-02-14T09:05:10;18.00;;;15.80;;
35056;SDS011;21241;51.828;19.574;2024-02-14T09:07:38;18.00;;;16.20;;
35056;SDS011;21241;51.828;19.574;2024-02-14T09:10:06;17.90;;;16.00;;
35056;SDS011;21241;51.828;19.574;2024-02-14T09:12:34;16.90;;;15.20;;
35056;SDS011;21241;51.828;19.574;2024-02-14T09:15:02;15.40;;;14.00;;
35056;SDS011;21241;51.828;19.574;2024-02-14T09:17:32;17.00;;;15.30;;
35056;SDS011;21241;51.828;19.574;2024-02-14T09:20:00;16.90;;;14.50;;
35056;SDS011;21241;51.828;19.574;2024-02-14T09:22:29;17.00;;;15.40;;
35056;SDS011;21241;51.828;19.574;2024-02-14T09:24:57;15.00;;;13.60;;
35056;SDS011;21241;51.828;19.574;2024-02-14T09:27:26;15.00;;;13.60;;
35056;SDS011;21241;51.828;19.574;2024-02-14T09:29:54;16.10;;;13.10;;
35056;SDS011;21241;51.828;19.574;2024-02-14T09:32:21;13.70;;;12.20;;
35056;SDS011;21241;51.828;19.574;2024-02-14T09:34:49;13.40;;;12.00;;
35056;SDS011;21241;51.828;19.574;2024-02-14T09:37:17;12.20;;;11.10;;
35056;SDS011;21241;51.828;19.574;2024-02-14T09:39:46;13.90;;;12.50;;
35056;SDS011;21241;51.828;19.574;2024-02-14T09:42:15;13.00;;;11.70;;
35056;SDS011;21241;51.828;19.574;2024-02-14T09:44:44;13.30;;;12.00;;
35056;SDS011;21241;51.828;19.574;2024-02-14T09:47:13;12.40;;;11.10;;
35056;SDS011;21241;51.828;19.574;2024-02-14T09:49:41;12.30;;;11.00;;
35056;SDS011;21241;51.828;19.574;2024-02-14T09:52:10;11.60;;;10.30;;
35056;SDS011;21241;51.828;19.574;2024-02-14T09:54:39;10.60;;;9.50;;
35056;SDS011;21241;51.828;19.574;2024-02-14T09:57:07;10.00;;;9.00;;
35056;SDS011;21241;51.828;19.574;2024-02-14T09:59:35;9.00;;;8.00;;
35056;SDS011;21241;51.828;19.574;2024-02-14T10:02:03;9.60;;;8.70;;
35056;SDS011;21241;51.828;19.574;2024-02-14T10:04:31;10.10;;;9.10;;
35056;SDS011;21241;51.828;19.574;2024-02-14T10:06:59;10.60;;;8.60;;
35056;SDS011;21241;51.828;19.574;2024-02-14T10:09:28;8.20;;;7.40;;
35056;SDS011;21241;51.828;19.574;2024-02-14T10:11:56;8.70;;;7.80;;
35056;SDS011;21241;51.828;19.574;2024-02-14T10:14:25;8.10;;;7.30;;
35056;SDS011;21241;51.828;19.574;2024-02-14T10:16:53;8.30;;;7.10;;
35056;SDS011;21241;51.828;19.574;2024-02-14T10:19:21;7.70;;;7.00;;
35056;SDS011;21241;51.828;19.574;2024-02-14T10:21:58;7.20;;;6.60;;
35056;SDS011;21241;51.828;19.574;2024-02-14T10:24:28;9.10;;;8.10;;
35056;SDS011;21241;51.828;19.574;2024-02-14T10:26:56;7.60;;;6.80;;
35056;SDS011;21241;51.828;19.574;2024-02-14T10:29:27;7.70;;;7.00;;
35056;SDS011;21241;51.828;19.574;2024-02-14T10:31:54;7.20;;;6.60;;
35056;SDS011;21241;51.828;19.574;2024-02-14T10:34:24;7.40;;;6.70;;
35056;SDS011;21241;51.828;19.574;2024-02-14T10:36:53;8.10;;;7.30;;
35056;SDS011;21241;51.828;19.574;2024-02-14T10:39:25;8.60;;;7.60;;
35056;SDS011;21241;51.828;19.574;2024-02-14T10:41:53;7.40;;;6.70;;
35056;SDS011;21241;51.828;19.574;2024-02-14T10:44:21;9.90;;;9.00;;
35056;SDS011;21241;51.828;19.574;2024-02-14T10:46:49;8.10;;;7.40;;
35056;SDS011;21241;51.828;19.574;2024-02-14T10:49:20;8.60;;;7.00;;
35056;SDS011;21241;51.828;19.574;2024-02-14T10:51:50;10.80;;;7.50;;
35056;SDS011;21241;51.828;19.574;2024-02-14T10:54:18;8.10;;;7.30;;
35056;SDS011;21241;51.828;19.574;2024-02-14T10:56:48;7.70;;;7.00;;
35056;SDS011;21241;51.828;19.574;2024-02-14T10:59:20;7.90;;;6.80;;
35056;SDS011;21241;51.828;19.574;2024-02-14T11:01:49;7.10;;;6.50;;
35056;SDS011;21241;51.828;19.574;2024-02-14T11:04:17;7.70;;;6.80;;
35056;SDS011;21241;51.828;19.574;2024-02-14T11:06:51;7.30;;;6.60;;
35056;SDS011;21241;51.828;19.574;2024-02-14T11:09:21;7.90;;;7.10;;
35056;SDS011;21241;51.828;19.574;2024-02-14T11:11:58;8.10;;;7.20;;
35056;SDS011;21241;51.828;19.574;2024-02-14T11:14:31;6.80;;;6.20;;
35056;SDS011;21241;51.828;19.574;2024-02-14T11:17:03;6.70;;;6.10;;
35056;SDS011;21241;51.828;19.574;2024-02-14T11:19:31;11.50;;;8.00;;
35056;SDS011;21241;51.828;19.574;2024-02-14T11:22:11;8.10;;;6.40;;
35056;SDS011;21241;51.828;19.574;2024-02-14T11:24:40;5.90;;;5.30;;
35056;SDS011;21241;51.828;19.574;2024-02-14T11:27:09;6.70;;;6.00;;
35056;SDS011;21241;51.828;19.574;2024-02-14T11:29:59;6.70;;;6.20;;
35056;SDS011;21241;51.828;19.574;2024-02-14T11:32:27;8.00;;;6.70;;
35056;SDS011;21241;51.828;19.574;2024-02-14T11:34:56;7.20;;;6.50;;
35056;SDS011;21241;51.828;19.574;2024-02-14T11:37:28;6.70;;;6.10;;
35056;SDS011;21241;51.828;19.574;2024-02-14T11:40:01;6.80;;;6.20;;
35056;SDS011;21241;51.828;19.574;2024-02-14T11:42:28;6.70;;;5.70;;
35056;SDS011;21241;51.828;19.574;2024-02-14T11:44:56;5.70;;;5.20;;
35056;SDS011;21241;51.828;19.574;2024-02-14T11:47:25;6.20;;;5.60;;
35056;SDS011;21241;51.828;19.574;2024-02-14T11:49:53;6.00;;;5.40;;
35056;SDS011;21241;51.828;19.574;2024-02-14T11:52:21;5.00;;;4.50;;
35056;SDS011;21241;51.828;19.574;2024-02-14T11:54:50;5.70;;;4.50;;
35056;SDS011;21241;51.828;19.574;2024-02-14T11:57:18;6.20;;;4.80;;
35056;SDS011;21241;51.828;19.574;2024-02-14T11:59:48;5.80;;;5.20;;
35056;SDS011;21241;51.828;19.574;2024-02-14T12:02:20;6.00;;;5.10;;
35056;SDS011;21241;51.828;19.574;2024-02-14T12:04:48;5.60;;;5.00;;
35056;SDS011;21241;51.828;19.574;2024-02-14T12:07:18;5.60;;;5.10;;
35056;SDS011;21241;51.828;19.574;2024-02-14T12:09:46;5.50;;;4.90;;
35056;SDS011;21241;51.828;19.574;2024-02-14T12:12:15;4.80;;;4.40;;
35056;SDS011;21241;51.828;19.574;2024-02-14T12:14:43;5.30;;;4.70;;
35056;SDS011;21241;51.828;19.574;2024-02-14T12:17:13;6.10;;;5.50;;
35056;SDS011;21241;51.828;19.574;2024-02-14T12:19:40;7.00;;;5.00;;
35056;SDS011;21241;51.828;19.574;2024-02-14T12:22:09;5.20;;;4.80;;
35056;SDS011;21241;51.828;19.574;2024-02-14T12:24:45;6.80;;;5.50;;
35056;SDS011;21241;51.828;19.574;2024-02-14T12:27:17;5.70;;;5.20;;
35056;SDS011;21241;51.828;19.574;2024-02-14T12:29:46;4.60;;;4.20;;
35056;SDS011;21241;51.828;19.574;2024-02-14T12:32:16;5.50;;;4.70;;
35056;SDS011;21241;51.828;19.574;2024-02-14T12:34:44;5.90;;;4.90;;
35056;SDS011;21241;51.828;19.574;2024-02-14T12:37:12;5.10;;;4.60;;
35056;SDS011;21241;51.828;19.574;2024-02-14T12:39:41;7.60;;;5.60;;
35056;SDS011;21241;51.828;19.574;2024-02-14T12:42:08;5.40;;;4.50;;
35056;SDS011;21241;51.828;19.574;2024-02-14T12:44:37;6.20;;;5.70;;
35056;SDS011;21241;51.828;19.574;2024-02-14T12:47:05;4.90;;;4.50;;
35056;SDS011;21241;51.828;19.574;2024-02-14T12:49:35;9.10;;;6.10;;
35056;SDS011;21241;51.828;19.574;2024-02-14T12:52:03;6.20;;;5.00;;
35056;SDS011;21241;51.828;19.574;2024-02-14T12:54:32;5.10;;;4.70;;
35056;SDS011;21241;51.828;19.574;2024-02-14T12:57:00;6.60;;;5.40;;
35056;SDS011;21241;51.828;19.574;2024-02-14T12:59:29;5.30;;;4.80;;
35056;SDS011;21241;51.828;19.574;2024-02-14T13:01:56;5.60;;;5.00;;
35056;SDS011;21241;51.828;19.574;2024-02-14T13:04:24;5.40;;;4.90;;
35056;SDS011;21241;51.828;19.574;2024-02-14T13:06:52;7.50;;;6.50;;
35056;SDS011;21241;51.828;19.574;2024-02-14T13:09:21;6.40;;;5.30;;
35056;SDS011;21241;51.828;19.574;2024-02-14T13:11:49;4.90;;;4.50;;
35056;SDS011;21241;51.828;19.574;2024-02-14T13:14:17;6.10;;;5.10;;
35056;SDS011;21241;51.828;19.574;2024-02-14T13:16:45;5.90;;;5.40;;
35056;SDS011;21241;51.828;19.574;2024-02-14T13:19:13;7.20;;;5.30;;
35056;SDS011;21241;51.828;19.574;2024-02-14T13:21:46;8.60;;;5.50;;
35056;SDS011;21241;51.828;19.574;2024-02-14T13:24:15;7.00;;;6.00;;
35056;SDS011;21241;51.828;19.574;2024-02-14T13:26:44;7.00;;;6.30;;
35056;SDS011;21241;51.828;19.574;2024-02-14T13:29:12;7.00;;;6.10;;
35056;SDS011;21241;51.828;19.574;2024-02-14T13:31:40;7.10;;;6.40;;
35056;SDS011;21241;51.828;19.574;2024-02-14T13:34:09;7.20;;;6.60;;
35056;SDS011;21241;51.828;19.574;2024-02-14T13:36:39;7.80;;;6.00;;
35056;SDS011;21241;51.828;19.574;2024-02-14T13:39:07;6.20;;;5.60;;
35056;SDS011;21241;51.828;19.574;2024-02-14T13:41:35;7.80;;;5.60;;
35056;SDS011;21241;51.828;19.574;2024-02-14T13:44:06;6.70;;;6.00;;
35056;SDS011;21241;51.828;19.574;2024-02-14T13:46:36;6.90;;;6.20;;
35056;SDS011;21241;51.828;19.574;2024-02-14T13:49:05;7.40;;;6.70;;
35056;SDS011;21241;51.828;19.574;2024-02-14T13:51:33;7.30;;;6.60;;
35056;SDS011;21241;51.828;19.574;2024-02-14T13:54:01;9.10;;;8.00;;
35056;SDS011;21241;51.828;19.574;2024-02-14T13:56:29;8.20;;;7.40;;
35056;SDS011;21241;51.828;19.574;2024-02-14T13:58:57;8.50;;;7.60;;
35056;SDS011;21241;51.828;19.574;2024-02-14T14:01:25;9.10;;;7.20;;
35056;SDS011;21241;51.828;19.574;2024-02-14T14:03:54;8.70;;;7.70;;
35056;SDS011;21241;51.828;19.574;2024-02-14T14:06:23;9.50;;;8.50;;
35056;SDS011;21241;51.828;19.574;2024-02-14T14:08:54;8.90;;;7.50;;
35056;SDS011;21241;51.828;19.574;2024-02-14T14:11:23;9.10;;;8.20;;
35056;SDS011;21241;51.828;19.574;2024-02-14T14:13:51;8.00;;;7.20;;
35056;SDS011;21241;51.828;19.574;2024-02-14T14:16:18;8.50;;;7.60;;
35056;SDS011;21241;51.828;19.574;2024-02-14T14:18:49;11.10;;;7.70;;
35056;SDS011;21241;51.828;19.574;2024-02-14T14:21:21;8.70;;;7.60;;
35056;SDS011;21241;51.828;19.574;2024-02-14T14:23:49;8.00;;;7.10;;